Strona główna
METAR-TAF:

METAR-TAF

Lotnisko :

Port lotniczy Gran Canaria

Gran Canaria, Hiszpania

Szerokość geograficzna: 27-56N, Długość geograficzna: 015-23W, wysokość: 23 m

Aktualna obserwacja pogody

Raport powstał 44 minut temu, godzina 18:00 UTC
Wiatr 26 kt od północ
Temperatura 24°C
Wilgotność 65%
Ciśnienie 1018 hPa
Widzialność 10 km lub więcej
Rozproszone chmury na wysokości 2200 ft

METAR: GCLP 171800Z 01026KT 9999 SCT022 24/17 Q1018 NOSIG

czas: 19:44 (18:44 UTC)

Prognoza

Raport powstał 4 godziny i 44 minut temu, godzina 14:00 UTC
Prognoza ważna od 17 godzina 15 UTC do 18 godzina 15 UTC
Wiatr 24 kt od północ
Widzialność 10 km lub więcej
Rozproszone chmury na wysokości 2500 ft
Prawdopodobieństwo 40% :
Przejściowo
od 17 godzina 15 UTC do 17 godzina 21 UTC
Wiatr 22 kt od północ w porywach dochodzący do 32 kt

TAF: GCLP 171400Z 1715/1815 36024KT 9999 SCT025 TX26/1715Z TN20/1805Z PROB40 TEMPO 1715/1721 36022G32KT

Obserwacja i prognoza pogody dla ponad 4000 lotnisk (raport METAR i TAF).

Dostępne stacje oznaczono żółtymi i czerwonymi punktami na mapie.

Najedź kursorem aby zobaczyć nazwę stacji.

Kliknij aby zobaczyć obserwacje i prognozy pogody.

Aby zmienić mapę: kliknij na zielony przycisk z czarnym krzyżykiem, aby powiększyć; na zielony przycisk z myślnikiem, aby pomniejszyć; na zielone strzałki, aby przejść do map sąsiednich.


METAR-TAF: